Time;durP1;ratioP1;P1;durP2;ratioP2;P2;SDS_P1;SDS_P2;PMS_P1;PMS_P2;Temp;Humidity;BMP_temperature;BMP_pressure;BME280_temperature;BME280_humidity;BME280_pressure;Samples;Min_cycle;Max_cycle;Signal;HPM_P1;HPM_P2
2021/11/14 00:00:23;;;;;;;36.17;22.80;;;10.50;99.10;;;;;;5054703;28;20499;-71
2021/11/14 00:02:49;;;;;;;32.13;19.87;;;10.40;99.10;;;;;;5056032;28;20040;-72
2021/11/14 00:05:15;;;;;;;33.67;21.77;;;10.50;99.10;;;;;;5054855;28;20098;-72
2021/11/14 00:07:41;;;;;;;33.60;21.50;;;10.40;99.00;;;;;;5054920;28;20036;-71
2021/11/14 00:10:06;;;;;;;33.47;20.77;;;10.40;98.90;;;;;;5055902;28;20033;-72
2021/11/14 00:12:32;;;;;;;32.40;21.30;;;10.40;98.90;;;;;;5054974;28;20039;-71
2021/11/14 00:14:58;;;;;;;29.77;20.27;;;10.40;98.90;;;;;;5038028;28;20397;-72
2021/11/14 00:17:23;;;;;;;32.63;20.73;;;10.30;98.90;;;;;;5055506;28;20037;-71
2021/11/14 00:19:49;;;;;;;31.23;19.87;;;10.30;98.80;;;;;;5055862;28;20037;-72
2021/11/14 00:22:15;;;;;;;33.37;20.30;;;10.20;98.80;;;;;;5054759;28;20064;-72
2021/11/14 00:24:40;;;;;;;30.90;19.10;;;10.30;98.80;;;;;;5054685;28;20074;-72
2021/11/14 00:27:06;;;;;;;30.23;19.97;;;10.30;98.80;;;;;;5051511;28;20111;-71
2021/11/14 00:29:32;;;;;;;30.83;19.30;;;10.20;98.70;;;;;;5037431;28;20029;-71
2021/11/14 00:31:57;;;;;;;27.43;17.80;;;10.30;99.00;;;;;;5054798;28;20041;-73
2021/11/14 00:34:24;;;;;;;30.27;19.97;;;10.20;98.70;;;;;;5055386;28;20104;-72
2021/11/14 00:36:53;;;;;;;31.47;20.50;;;10.20;99.00;;;;;;5038052;28;20049;-71
2021/11/14 00:39:19;;;;;;;29.93;20.03;;;10.20;98.70;;;;;;5053487;28;20036;-72
2021/11/14 00:41:46;;;;;;;32.37;20.03;;;10.20;98.70;;;;;;5055277;28;20029;-72
2021/11/14 00:44:13;;;;;;;31.93;20.30;;;10.20;98.70;;;;;;5055307;28;20108;-72
2021/11/14 00:46:39;;;;;;;30.93;19.30;;;10.20;98.80;;;;;;5055208;28;20029;-72
2021/11/14 00:49:05;;;;;;;32.20;20.90;;;10.20;98.80;;;;;;5055240;28;20033;-72
2021/11/14 00:51:32;;;;;;;32.70;20.37;;;10.20;98.70;;;;;;5053950;28;20121;-72
2021/11/14 00:54:00;;;;;;;31.50;19.53;;;10.30;98.80;;;;;;5055308;28;20115;-72
2021/11/14 00:56:27;;;;;;;31.50;19.67;;;10.20;98.70;;;;;;5054081;28;20036;-72
2021/11/14 00:58:53;;;;;;;33.73;19.37;;;10.20;98.70;;;;;;5054893;28;20047;-72
2021/11/14 01:01:19;;;;;;;34.50;20.30;;;10.20;98.80;;;;;;5070265;28;20468;-72
2021/11/14 01:03:45;;;;;;;34.77;20.70;;;10.20;98.80;;;;;;5070317;28;20410;-72
2021/11/14 01:06:11;;;;;;;27.17;18.97;;;10.20;98.80;;;;;;5055190;28;20059;-72
2021/11/14 01:08:36;;;;;;;29.03;18.73;;;10.20;98.80;;;;;;5054628;28;20032;-72
2021/11/14 01:11:03;;;;;;;28.77;19.17;;;10.20;98.90;;;;;;5087448;28;20037;-72
2021/11/14 01:13:29;;;;;;;30.50;19.93;;;10.20;98.90;;;;;;5086714;28;20037;-72
2021/11/14 01:15:55;;;;;;;33.47;19.93;;;10.20;98.80;;;;;;5087161;28;20048;-73
2021/11/14 01:18:22;;;;;;;30.03;18.50;;;10.30;98.80;;;;;;5086919;28;20044;-72
2021/11/14 01:20:51;;;;;;;30.47;19.90;;;10.30;98.80;;;;;;5054994;28;20029;-72
2021/11/14 01:23:17;;;;;;;29.23;19.20;;;10.20;98.70;;;;;;5053561;28;20021;-72
2021/11/14 01:25:44;;;;;;;29.53;19.63;;;10.30;98.70;;;;;;5053983;28;20545;-72
2021/11/14 01:28:10;;;;;;;30.03;19.63;;;10.20;98.60;;;;;;5086794;28;20040;-72
2021/11/14 01:30:40;;;;;;;30.83;19.30;;;10.30;98.50;;;;;;5054618;28;20036;-73
2021/11/14 01:33:07;;;;;;;30.57;19.53;;;10.20;98.50;;;;;;5054528;28;20041;-72
2021/11/14 01:35:35;;;;;;;30.80;19.57;;;10.10;98.50;;;;;;5054605;28;20040;-72
2021/11/14 01:38:02;;;;;;;29.13;19.43;;;10.10;98.50;;;;;;5054033;28;20040;-72
2021/11/14 01:40:44;;;;;;;30.20;19.37;;;10.10;98.50;;;;;;5053048;28;20043;-72
2021/11/14 01:43:12;;;;;;;28.30;17.87;;;10.00;98.50;;;;;;5054671;28;20029;-72
2021/11/14 01:45:38;;;;;;;31.57;19.10;;;10.10;98.80;;;;;;5054084;28;20017;-72
2021/11/14 01:48:04;;;;;;;31.77;19.70;;;10.00;98.60;;;;;;5054089;28;20033;-72
2021/11/14 01:50:31;;;;;;;28.13;18.20;;;10.00;98.70;;;;;;5052623;28;20116;-72
2021/11/14 01:52:57;;;;;;;29.00;18.60;;;10.00;98.70;;;;;;5053755;28;20025;-72
2021/11/14 01:55:27;;;;;;;29.67;18.70;;;10.00;98.70;;;;;;5053068;28;20474;-72
2021/11/14 01:57:54;;;;;;;29.27;19.40;;;10.00;98.80;;;;;;5053551;28;20507;-72
2021/11/14 02:00:30;;;;;;;29.53;19.07;;;10.00;98.80;;;;;;5052587;28;20029;-72
2021/11/14 02:02:56;;;;;;;29.60;18.77;;;10.00;98.80;;;;;;5052634;28;20373;-71
2021/11/14 02:05:23;;;;;;;30.10;19.20;;;10.00;98.80;;;;;;5054112;28;20044;-71
2021/11/14 02:07:54;;;;;;;25.80;17.53;;;10.00;98.80;;;;;;5053904;28;20072;-71
2021/11/14 02:10:21;;;;;;;30.90;19.63;;;10.00;98.80;;;;;;5053694;28;20048;-77
2021/11/14 02:12:47;;;;;;;27.07;17.90;;;10.00;98.80;;;;;;5036039;28;20033;-76
2021/11/14 02:15:13;;;;;;;28.07;17.30;;;10.00;98.70;;;;;;5053582;28;20508;-76
2021/11/14 02:17:39;;;;;;;27.43;16.40;;;10.00;98.70;;;;;;5053428;28;20503;-78
2021/11/14 02:20:07;;;;;;;29.90;17.90;;;10.00;98.70;;;;;;5053448;28;20362;-77
2021/11/14 02:22:33;;;;;;;28.27;17.87;;;10.00;98.70;;;;;;5053621;28;20048;-77
2021/11/14 02:25:00;;;;;;;28.70;17.53;;;10.00;98.70;;;;;;5053632;28;20021;-77
2021/11/14 02:27:25;;;;;;;29.27;17.93;;;9.90;98.60;;;;;;5053362;28;20103;-78
2021/11/14 02:29:51;;;;;;;26.03;16.13;;;9.90;98.60;;;;;;5052087;28;20485;-78
2021/11/14 02:32:17;;;;;;;27.37;17.70;;;9.90;98.50;;;;;;5052109;28;20052;-77
2021/11/14 02:34:43;;;;;;;29.40;17.67;;;9.80;98.50;;;;;;5044523;28;20026;-78
2021/11/14 02:37:08;;;;;;;27.10;17.53;;;9.80;98.60;;;;;;5040877;28;20381;-72
2021/11/14 02:39:35;;;;;;;26.30;16.60;;;9.80;98.70;;;;;;5033489;28;20500;-73
2021/11/14 02:42:01;;;;;;;26.47;16.33;;;9.80;98.70;;;;;;5050081;28;20136;-73
2021/11/14 02:44:27;;;;;;;29.60;17.97;;;9.80;98.70;;;;;;5085945;28;20063;-72
2021/11/14 02:46:53;;;;;;;31.77;19.73;;;9.80;98.70;;;;;;5053296;28;20083;-72
2021/11/14 02:49:19;;;;;;;31.57;18.80;;;9.80;98.70;;;;;;5053768;28;20020;-73
2021/11/14 02:51:44;;;;;;;30.27;19.10;;;9.80;98.70;;;;;;5052063;28;20044;-73
2021/11/14 02:54:10;;;;;;;30.87;17.97;;;9.80;98.80;;;;;;5068674;28;20021;-73
2021/11/14 02:56:36;;;;;;;35.20;20.63;;;9.80;98.80;;;;;;5052272;28;20051;-72
2021/11/14 02:59:02;;;;;;;33.13;18.80;;;9.80;98.80;;;;;;5053305;28;20440;-73
2021/11/14 03:01:36;;;;;;;30.83;16.97;;;9.90;98.90;;;;;;5053233;28;20044;-73
2021/11/14 03:04:02;;;;;;;34.30;19.52;;;9.90;98.90;;;;;;5056566;28;20017;-73
2021/11/14 03:06:29;;;;;;;31.23;18.30;;;10.00;98.90;;;;;;5057106;28;20024;-73
2021/11/14 03:08:55;;;;;;;36.67;18.90;;;9.90;98.90;;;;;;5057211;28;20025;-72
2021/11/14 03:11:22;;;;;;;33.10;19.93;;;9.90;98.90;;;;;;5057159;28;20040;-73
2021/11/14 03:13:48;;;;;;;31.17;18.17;;;9.90;98.90;;;;;;5057096;28;20481;-73
2021/11/14 03:16:17;;;;;;;32.00;19.37;;;9.90;99.00;;;;;;5056314;28;20120;-72
2021/11/14 03:18:42;;;;;;;33.67;19.57;;;9.90;99.00;;;;;;5055522;28;20389;-73
2021/11/14 03:21:09;;;;;;;36.93;21.70;;;9.90;99.00;;;;;;5055927;28;20025;-73
2021/11/14 03:23:35;;;;;;;39.10;21.33;;;9.90;99.10;;;;;;5056957;28;20112;-72
2021/11/14 03:26:00;;;;;;;40.33;21.93;;;9.90;99.10;;;;;;5056831;28;20095;-71
2021/11/14 03:28:27;;;;;;;40.17;22.10;;;9.90;99.10;;;;;;5056669;28;20033;-71
2021/11/14 03:30:55;;;;;;;39.83;21.13;;;9.90;99.20;;;;;;5056765;28;20090;-71
2021/11/14 03:33:21;;;;;;;36.43;21.27;;;10.00;99.20;;;;;;5055197;28;20052;-71
2021/11/14 03:35:53;;;;;;;41.23;21.87;;;10.00;99.20;;;;;;5055681;28;20116;-71
2021/11/14 03:38:26;;;;;;;39.83;22.53;;;10.00;99.20;;;;;;5056571;28;20103;-71
2021/11/14 03:40:52;;;;;;;39.50;21.70;;;10.00;99.20;;;;;;5056699;28;20377;-71
2021/11/14 03:43:18;;;;;;;43.43;23.80;;;10.00;99.30;;;;;;5056019;28;20059;-72
2021/11/14 03:45:44;;;;;;;46.97;23.67;;;10.10;99.30;;;;;;5056375;28;20075;-71
2021/11/14 03:48:11;;;;;;;40.77;22.07;;;10.10;99.30;;;;;;5056498;28;20087;-71
2021/11/14 03:50:37;;;;;;;42.53;23.57;;;10.10;99.30;;;;;;5056278;28;20528;-71
2021/11/14 03:53:04;;;;;;;43.13;24.13;;;10.10;99.30;;;;;;5054919;28;20047;-71
2021/11/14 03:55:30;;;;;;;44.30;23.93;;;10.10;99.20;;;;;;5056047;28;20033;-72
2021/11/14 03:57:56;;;;;;;44.37;24.30;;;10.10;99.20;;;;;;5056051;28;20058;-71
2021/11/14 04:00:27;;;;;;;43.17;23.97;;;10.10;99.50;;;;;;5055971;28;20040;-71
2021/11/14 04:02:55;;;;;;;45.10;24.43;;;10.10;99.30;;;;;;5055929;28;20351;-71
2021/11/14 04:05:24;;;;;;;47.33;24.53;;;10.10;99.30;;;;;;5055862;28;20048;-72
2021/11/14 04:07:50;;;;;;;46.87;25.93;;;10.10;99.30;;;;;;5055822;28;20154;-71
2021/11/14 04:10:16;;;;;;;46.87;25.43;;;10.10;99.30;;;;;;5056013;28;20112;-72
2021/11/14 04:12:42;;;;;;;46.43;25.30;;;10.10;99.30;;;;;;5055881;28;20033;-71
2021/11/14 04:15:10;;;;;;;50.00;26.83;;;10.10;99.30;;;;;;5054870;28;20454;-71
2021/11/14 04:17:36;;;;;;;42.67;24.23;;;10.10;99.30;;;;;;5087493;28;20041;-72
2021/11/14 04:20:08;;;;;;;50.13;26.43;;;10.10;99.30;;;;;;5054887;28;20021;-71
2021/11/14 04:22:34;;;;;;;48.47;25.77;;;10.10;99.30;;;;;;5055818;28;20024;-71
2021/11/14 04:25:00;;;;;;;49.80;26.27;;;10.10;99.30;;;;;;5037840;28;20432;-71
2021/11/14 04:27:26;;;;;;;45.40;25.40;;;10.20;99.40;;;;;;5054620;28;20112;-71
2021/11/14 04:29:52;;;;;;;47.17;25.50;;;10.20;99.30;;;;;;5055623;28;20029;-72
2021/11/14 04:32:18;;;;;;;48.30;24.97;;;10.20;99.40;;;;;;5055337;28;20108;-72
2021/11/14 04:34:43;;;;;;;49.53;26.60;;;10.20;99.40;;;;;;5054522;28;20060;-72
2021/11/14 04:37:09;;;;;;;52.47;26.90;;;10.20;99.30;;;;;;5088041;28;20033;-72
2021/11/14 04:39:35;;;;;;;52.47;28.77;;;10.20;99.30;;;;;;5055268;28;20033;-72
2021/11/14 04:42:03;;;;;;;46.73;25.87;;;10.20;99.30;;;;;;5055526;28;20449;-72
2021/11/14 04:44:29;;;;;;;53.27;29.70;;;10.20;99.30;;;;;;5055491;28;20024;-71
2021/11/14 04:46:55;;;;;;;55.17;28.20;;;10.20;99.30;;;;;;5053752;28;20072;-71
2021/11/14 04:49:21;;;;;;;54.50;29.97;;;10.20;99.30;;;;;;5055277;28;20041;-71
2021/11/14 04:51:51;;;;;;;50.90;28.33;;;10.20;99.20;;;;;;5053905;28;20033;-72
2021/11/14 04:54:18;;;;;;;52.10;29.37;;;10.20;99.30;;;;;;5087254;28;20037;-71
2021/11/14 04:56:46;;;;;;;51.93;27.63;;;10.20;99.50;;;;;;5070669;28;20044;-72
2021/11/14 04:59:11;;;;;;;53.37;28.00;;;10.20;99.20;;;;;;5055158;28;20033;-72
2021/11/14 05:01:38;;;;;;;54.27;27.73;;;10.20;99.20;;;;;;5087522;28;20503;-72
2021/11/14 05:04:04;;;;;;;55.67;29.03;;;10.30;99.20;;;;;;5054630;28;20033;-72
2021/11/14 05:06:30;;;;;;;52.20;27.40;;;10.30;99.20;;;;;;5054984;28;20037;-72
2021/11/14 05:08:56;;;;;;;46.80;26.60;;;10.20;99.20;;;;;;5053917;28;20449;-72
2021/11/14 05:11:21;;;;;;;49.07;26.30;;;10.30;99.20;;;;;;5053558;28;20037;-72
2021/11/14 05:13:47;;;;;;;46.80;26.83;;;10.20;99.20;;;;;;5055025;28;20041;-72
2021/11/14 05:16:13;;;;;;;47.70;26.23;;;10.30;99.20;;;;;;5053424;28;20044;-72
2021/11/14 05:18:39;;;;;;;49.40;27.57;;;10.20;99.20;;;;;;5054587;28;20033;-71
2021/11/14 05:21:06;;;;;;;49.80;26.10;;;10.30;99.40;;;;;;5054556;28;20017;-71
2021/11/14 05:23:32;;;;;;;46.63;26.87;;;10.40;99.20;;;;;;5053358;28;20029;-72
2021/11/14 05:25:57;;;;;;;50.90;27.60;;;10.30;99.20;;;;;;5053418;28;20036;-72
2021/11/14 05:28:23;;;;;;;47.60;25.00;;;10.30;99.20;;;;;;5036310;28;20040;-72
2021/11/14 05:30:49;;;;;;;49.00;26.63;;;10.30;99.20;;;;;;5054290;28;20167;-72
2021/11/14 05:33:15;;;;;;;49.20;28.30;;;10.30;99.20;;;;;;5036447;28;20055;-72
2021/11/14 05:35:41;;;;;;;49.75;28.20;;;10.20;99.10;;;;;;5052982;28;20112;-72
2021/11/14 05:38:07;;;;;;;49.80;26.33;;;10.30;99.10;;;;;;5054513;28;20521;-72
2021/11/14 05:40:33;;;;;;;53.57;27.47;;;10.30;99.10;;;;;;5054260;28;20025;-72
2021/11/14 05:43:00;;;;;;;51.07;26.73;;;10.30;99.10;;;;;;5054282;28;20106;-72
2021/11/14 05:45:26;;;;;;;52.23;28.03;;;10.30;99.10;;;;;;5069301;28;20503;-72
2021/11/14 05:47:52;;;;;;;50.30;25.80;;;10.30;99.10;;;;;;5054583;28;20033;-72
2021/11/14 05:50:19;;;;;;;48.87;28.60;;;10.30;99.10;;;;;;5069494;28;20087;-72
2021/11/14 05:52:44;;;;;;;54.57;26.67;;;10.30;99.10;;;;;;5054058;28;20441;-72
2021/11/14 05:55:11;;;;;;;54.17;27.27;;;10.30;99.10;;;;;;5086539;28;20072;-72
2021/11/14 05:57:54;;;;;;;51.37;27.53;;;10.30;99.10;;;;;;5069475;28;20029;-72
2021/11/14 06:00:28;;;;;;;50.00;26.53;;;10.30;99.10;;;;;;5052788;28;20100;-72
2021/11/14 06:03:11;;;;;;;51.55;26.35;;;10.30;99.00;;;;;;5053760;28;20021;-72
2021/11/14 06:05:39;;;;;;;51.30;26.87;;;10.30;99.00;;;;;;5067621;28;20036;-72
2021/11/14 06:08:07;;;;;;;53.17;28.00;;;10.30;99.00;;;;;;5053775;28;20480;-72
2021/11/14 06:10:33;;;;;;;49.97;27.03;;;10.30;99.00;;;;;;5053974;28;20033;-73
2021/11/14 06:12:59;;;;;;;47.93;27.43;;;10.30;99.00;;;;;;5053612;28;20359;-72
2021/11/14 06:15:24;;;;;;;47.23;25.87;;;10.30;99.10;;;;;;5051914;28;20482;-72
2021/11/14 06:17:51;;;;;;;50.57;27.37;;;10.40;99.10;;;;;;5040072;28;20027;-72
2021/11/14 06:20:17;;;;;;;46.00;25.47;;;10.30;99.10;;;;;;5053566;28;20029;-73
2021/11/14 06:22:44;;;;;;;47.20;25.87;;;10.40;99.10;;;;;;5047224;28;20033;-72
2021/11/14 06:25:10;;;;;;;47.70;26.10;;;10.40;99.10;;;;;;5044252;28;20037;-73
2021/11/14 06:27:37;;;;;;;49.70;26.63;;;10.40;99.10;;;;;;5035036;28;20061;-73
2021/11/14 06:30:06;;;;;;;47.07;25.47;;;10.30;99.00;;;;;;5050423;28;20079;-72
2021/11/14 06:32:31;;;;;;;44.07;23.67;;;10.40;99.10;;;;;;5051609;28;20041;-73
2021/11/14 06:34:59;;;;;;;47.17;24.57;;;10.40;99.10;;;;;;5050608;28;20028;-72
2021/11/14 06:37:25;;;;;;;46.10;25.07;;;10.50;99.10;;;;;;5073685;28;20053;-72
2021/11/14 06:39:51;;;;;;;42.83;23.90;;;10.40;99.00;;;;;;5034914;28;20038;-72
2021/11/14 06:42:16;;;;;;;41.33;22.90;;;10.50;99.00;;;;;;5046080;28;20085;-72
2021/11/14 06:44:42;;;;;;;44.85;23.50;;;10.40;99.00;;;;;;5051540;28;20155;-72
2021/11/14 06:47:08;;;;;;;41.63;23.83;;;10.40;98.90;;;;;;5052774;28;20033;-73
2021/11/14 06:49:33;;;;;;;45.03;24.43;;;10.50;99.00;;;;;;5051206;28;20047;-72
2021/11/14 06:51:59;;;;;;;43.10;25.10;;;10.50;98.90;;;;;;5052711;28;20483;-72
2021/11/14 06:54:25;;;;;;;40.90;24.03;;;10.50;98.90;;;;;;5053143;28;20037;-72
2021/11/14 06:56:51;;;;;;;44.77;24.77;;;10.50;98.90;;;;;;5052830;28;20500;-72
2021/11/14 06:59:17;;;;;;;39.57;22.77;;;10.50;98.90;;;;;;5034480;28;20041;-72
2021/11/14 07:01:42;;;;;;;41.67;22.43;;;10.50;98.90;;;;;;5051731;28;20040;-73
2021/11/14 07:04:08;;;;;;;43.07;23.20;;;10.50;98.90;;;;;;5035311;28;20028;-77
2021/11/14 07:06:33;;;;;;;39.30;23.73;;;10.50;98.80;;;;;;5053170;28;20056;-77
2021/11/14 07:08:59;;;;;;;41.07;22.37;;;10.50;98.80;;;;;;5053146;28;20132;-76
2021/11/14 07:11:25;;;;;;;43.47;24.00;;;10.50;98.80;;;;;;5053085;28;20033;-78
2021/11/14 07:13:50;;;;;;;43.90;23.20;;;10.50;98.80;;;;;;5051606;28;20033;-77
2021/11/14 07:16:16;;;;;;;42.47;22.40;;;10.50;98.80;;;;;;5053159;28;20037;-76
2021/11/14 07:18:42;;;;;;;39.37;21.60;;;10.50;98.80;;;;;;5052201;28;20385;-77
2021/11/14 07:21:08;;;;;;;42.30;22.50;;;10.50;98.80;;;;;;5051818;28;20044;-77
2021/11/14 07:23:33;;;;;;;39.17;22.10;;;10.60;98.80;;;;;;5053217;28;20424;-78
2021/11/14 07:25:59;;;;;;;42.43;22.93;;;10.60;98.70;;;;;;5052743;28;20036;-77
2021/11/14 07:28:25;;;;;;;37.77;20.90;;;10.60;98.70;;;;;;5052841;28;20033;-77
2021/11/14 07:30:50;;;;;;;38.37;20.63;;;10.60;98.60;;;;;;5035218;28;20114;-76
2021/11/14 07:33:16;;;;;;;36.03;19.80;;;10.60;98.60;;;;;;5052717;28;20060;-76
2021/11/14 07:35:41;;;;;;;37.80;21.30;;;10.60;98.50;;;;;;5051534;28;20508;-77
2021/11/14 07:38:07;;;;;;;39.73;21.13;;;10.60;98.50;;;;;;5051402;28;20033;-77
2021/11/14 07:40:33;;;;;;;40.13;20.90;;;10.60;98.50;;;;;;5034603;28;20465;-77
2021/11/14 07:42:59;;;;;;;35.60;21.27;;;10.60;98.50;;;;;;5051455;28;20033;-78
2021/11/14 07:45:27;;;;;;;35.40;19.33;;;10.60;98.50;;;;;;5052622;28;20735;-77
2021/11/14 07:47:54;;;;;;;39.90;20.57;;;10.60;98.50;;;;;;5052638;28;20033;-77
2021/11/14 07:50:23;;;;;;;38.43;21.83;;;10.60;98.40;;;;;;5054461;28;20029;-77
2021/11/14 07:52:49;;;;;;;37.92;20.45;;;10.60;98.40;;;;;;5056189;28;20055;-78
2021/11/14 07:55:16;;;;;;;35.27;19.13;;;10.60;98.30;;;;;;5038049;28;20033;-77
2021/11/14 07:57:43;;;;;;;35.10;18.90;;;10.70;98.30;;;;;;5054899;28;20120;-76
2021/11/14 08:00:15;;;;;;;35.20;19.10;;;10.60;98.30;;;;;;5054827;28;20029;-77
2021/11/14 08:02:42;;;;;;;31.97;18.30;;;10.70;98.30;;;;;;5055893;28;20025;-71
2021/11/14 08:05:08;;;;;;;33.87;17.40;;;10.60;98.20;;;;;;5054589;28;20021;-78
2021/11/14 08:07:33;;;;;;;36.50;18.83;;;10.70;98.20;;;;;;5054561;28;20071;-77
2021/11/14 08:09:59;;;;;;;32.63;18.37;;;10.70;98.10;;;;;;5055575;28;20431;-78
2021/11/14 08:12:25;;;;;;;36.10;18.90;;;10.70;98.10;;;;;;5055018;28;20491;-78
2021/11/14 08:14:51;;;;;;;33.13;17.83;;;10.70;98.10;;;;;;5056223;28;20056;-72
2021/11/14 08:17:16;;;;;;;35.60;17.40;;;10.70;98.10;;;;;;5054642;28;20482;-74
2021/11/14 08:19:43;;;;;;;34.10;18.87;;;10.70;98.10;;;;;;5055227;28;20048;-72
2021/11/14 08:22:08;;;;;;;31.77;18.13;;;10.70;98.10;;;;;;5055066;28;20041;-72
2021/11/14 08:24:34;;;;;;;34.37;18.27;;;10.70;98.10;;;;;;5053980;28;20041;-72
2021/11/14 08:26:59;;;;;;;32.20;17.00;;;10.80;98.10;;;;;;5054346;28;20037;-71
2021/11/14 08:29:25;;;;;;;32.10;16.17;;;10.80;98.00;;;;;;5054657;28;20123;-72
2021/11/14 08:31:51;;;;;;;30.13;17.10;;;10.80;98.00;;;;;;5054355;28;20044;-71
2021/11/14 08:34:16;;;;;;;33.97;18.60;;;10.80;98.00;;;;;;5053655;28;20056;-71
2021/11/14 08:36:42;;;;;;;35.10;18.55;;;10.80;98.00;;;;;;5053880;28;20036;-71
2021/11/14 08:39:08;;;;;;;31.70;17.23;;;10.80;98.00;;;;;;5055148;28;20037;-76
2021/11/14 08:41:33;;;;;;;33.53;17.93;;;10.80;97.90;;;;;;5054075;28;20021;-77
2021/11/14 08:44:00;;;;;;;30.67;16.30;;;10.90;98.00;;;;;;5055381;28;20033;-76
2021/11/14 08:46:26;;;;;;;32.33;17.50;;;10.80;98.00;;;;;;5055234;28;20029;-77
2021/11/14 08:48:53;;;;;;;35.13;17.13;;;10.80;98.00;;;;;;5055440;28;20111;-76
2021/11/14 08:51:20;;;;;;;30.77;17.57;;;10.90;98.00;;;;;;5087080;28;20067;-76
2021/11/14 08:53:46;;;;;;;30.60;16.15;;;10.90;98.00;;;;;;5037776;28;20083;-77
2021/11/14 08:56:11;;;;;;;28.75;16.13;;;10.90;98.00;;;;;;5055061;28;20469;-77
2021/11/14 08:58:38;;;;;;;32.07;16.53;;;10.90;98.00;;;;;;5047655;28;20041;-77
2021/11/14 09:01:06;;;;;;;27.45;15.20;;;10.90;97.90;;;;;;5045464;28;20127;-78
2021/11/14 09:03:32;;;;;;;31.17;16.67;;;10.90;97.90;;;;;;5055515;28;20027;-78
2021/11/14 09:05:59;;;;;;;28.35;15.55;;;11.00;97.80;;;;;;5054600;28;20116;-77
2021/11/14 09:08:24;;;;;;;27.83;15.10;;;11.00;97.80;;;;;;5054832;28;20033;-77
2021/11/14 09:10:51;;;;;;;28.73;14.48;;;11.00;97.70;;;;;;5054799;28;20388;-77
2021/11/14 09:13:17;;;;;;;27.92;14.13;;;11.00;97.60;;;;;;5054224;28;20111;-77
2021/11/14 09:15:44;;;;;;;24.20;14.53;;;11.00;97.60;;;;;;5054656;28;20033;-77
2021/11/14 09:18:10;;;;;;;30.03;16.53;;;11.10;97.60;;;;;;5054271;28;20520;-77
2021/11/14 09:20:36;;;;;;;29.67;16.87;;;11.10;97.50;;;;;;5053069;28;20021;-78
2021/11/14 09:23:02;;;;;;;28.65;15.52;;;11.00;97.70;;;;;;5054504;28;20021;-77
2021/11/14 09:25:28;;;;;;;27.63;14.80;;;11.10;97.50;;;;;;5054628;28;20445;-77
2021/11/14 09:27:54;;;;;;;27.23;15.38;;;11.00;97.40;;;;;;5036493;28;20040;-78
2021/11/14 09:30:21;;;;;;;28.60;14.97;;;11.10;97.50;;;;;;5052871;28;20536;-78
2021/11/14 09:32:47;;;;;;;25.02;15.35;;;11.10;97.50;;;;;;5053099;28;20055;-78
2021/11/14 09:35:14;;;;;;;32.65;15.40;;;11.20;97.40;;;;;;5053041;28;20392;-78
2021/11/14 09:37:39;;;;;;;28.95;14.73;;;11.10;97.40;;;;;;5052917;28;20169;-77
2021/11/14 09:40:09;;;;;;;27.33;14.65;;;11.10;97.30;;;;;;5054049;28;20033;-78
2021/11/14 09:42:36;;;;;;;28.02;14.95;;;11.20;97.40;;;;;;5054217;28;20462;-77
2021/11/14 09:45:04;;;;;;;29.27;14.77;;;11.20;97.30;;;;;;5052723;28;20499;-76
2021/11/14 09:47:29;;;;;;;30.65;15.30;;;11.20;97.30;;;;;;5053161;28;20017;-77
2021/11/14 09:49:58;;;;;;;27.45;14.60;;;11.30;97.30;;;;;;5054003;28;20021;-77
2021/11/14 09:52:24;;;;;;;28.25;13.60;;;11.30;97.30;;;;;;5085664;28;20029;-78
2021/11/14 09:54:50;;;;;;;25.70;14.65;;;11.30;97.30;;;;;;5054064;28;20100;-77
2021/11/14 09:57:15;;;;;;;28.23;14.95;;;11.30;97.30;;;;;;5052115;28;20124;-76
2021/11/14 09:59:42;;;;;;;28.13;14.68;;;11.30;97.30;;;;;;5053378;28;20116;-77
2021/11/14 10:02:09;;;;;;;26.90;13.63;;;11.40;97.20;;;;;;5051582;28;20033;-77
2021/11/14 10:04:34;;;;;;;28.58;14.38;;;11.50;97.20;;;;;;5053301;28;20033;-77
2021/11/14 10:07:12;;;;;;;26.33;14.32;;;11.40;97.10;;;;;;5053720;28;20363;-78
2021/11/14 10:09:49;;;;;;;24.48;13.65;;;11.40;97.00;;;;;;5053261;28;20469;-78
2021/11/14 10:12:18;;;;;;;26.63;14.63;;;11.50;97.10;;;;;;5032653;28;20038;-76
2021/11/14 10:14:46;;;;;;;30.20;15.38;;;11.40;97.00;;;;;;5045971;28;20127;-77
2021/11/14 10:17:24;;;;;;;28.55;15.43;;;11.50;97.00;;;;;;5052029;28;20025;-77
2021/11/14 10:20:13;;;;;;;30.85;17.05;;;11.50;96.80;;;;;;5051975;28;20021;-77
2021/11/14 10:22:42;;;;;;;28.58;16.40;;;11.50;96.60;;;;;;5053113;28;20033;-72
2021/11/14 10:25:09;;;;;;;31.73;16.70;;;11.50;96.50;;;;;;5053394;28;20117;-71
2021/11/14 10:27:35;;;;;;;27.23;14.30;;;11.50;96.50;;;;;;5053232;28;20029;-72
2021/11/14 10:30:05;;;;;;;29.65;15.48;;;11.50;96.70;;;;;;5068698;28;20159;-77
2021/11/14 10:32:31;;;;;;;26.80;14.55;;;11.50;96.40;;;;;;5053245;28;20057;-77
2021/11/14 10:35:04;;;;;;;30.40;16.58;;;11.50;96.40;;;;;;5053333;28;20384;-77
2021/11/14 10:37:42;;;;;;;27.67;14.63;;;11.50;96.40;;;;;;5051989;28;20033;-76
2021/11/14 10:40:09;;;;;;;26.52;14.52;;;11.50;96.40;;;;;;5053056;28;20747;-75
2021/11/14 10:42:35;;;;;;;25.00;14.40;;;11.50;96.40;;;;;;5053132;28;20033;-76
2021/11/14 10:45:04;;;;;;;26.38;13.90;;;11.50;96.40;;;;;;5085449;28;20512;-76
2021/11/14 10:47:30;;;;;;;25.88;14.85;;;11.50;96.30;;;;;;5053385;28;20056;-76
2021/11/14 10:49:57;;;;;;;28.45;15.13;;;11.60;96.30;;;;;;5068482;28;20048;-76
2021/11/14 10:52:28;;;;;;;30.52;16.20;;;11.60;96.30;;;;;;5051797;28;20465;-77
2021/11/14 10:54:57;;;;;;;35.30;16.27;;;11.60;96.10;;;;;;5052948;28;20056;-76
2021/11/14 10:57:30;;;;;;;29.83;17.80;;;11.60;96.10;;;;;;5053159;28;20025;-71
2021/11/14 10:59:56;;;;;;;32.58;16.95;;;11.60;95.90;;;;;;5051593;28;20120;-71
2021/11/14 11:02:24;;;;;;;29.10;15.63;;;11.70;95.90;;;;;;5051419;28;20021;-71
2021/11/14 11:04:54;;;;;;;28.58;15.27;;;11.70;95.90;;;;;;5053430;28;20025;-71
2021/11/14 11:07:20;;;;;;;30.85;17.25;;;11.70;95.80;;;;;;5052942;28;20043;-71
2021/11/14 11:09:53;;;;;;;37.28;18.67;;;11.70;95.70;;;;;;5053151;28;20031;-71
2021/11/14 11:12:21;;;;;;;31.70;17.67;;;11.70;95.60;;;;;;5052659;28;20060;-71
2021/11/14 11:14:57;;;;;;;31.42;16.83;;;11.60;95.70;;;;;;5053409;28;20028;-71
2021/11/14 11:17:23;;;;;;;29.70;16.75;;;11.70;95.60;;;;;;5051407;28;20029;-72
2021/11/14 11:19:49;;;;;;;29.85;17.25;;;11.60;95.50;;;;;;5051765;28;20021;-72
2021/11/14 11:22:15;;;;;;;33.65;17.63;;;11.70;95.60;;;;;;5052577;28;20424;-77
2021/11/14 11:24:49;;;;;;;28.90;14.90;;;11.70;95.50;;;;;;5055340;28;20021;-77
2021/11/14 11:27:15;;;;;;;31.17;16.88;;;11.70;95.60;;;;;;5056623;28;20025;-77
2021/11/14 11:29:41;;;;;;;34.15;17.95;;;11.70;95.50;;;;;;5088710;28;20469;-77
2021/11/14 11:32:11;;;;;;;33.25;17.92;;;11.70;95.50;;;;;;5056203;28;20029;-77
2021/11/14 11:34:42;;;;;;;30.73;16.20;;;11.80;95.50;;;;;;5056869;28;20071;-77
2021/11/14 11:37:11;;;;;;;33.38;16.63;;;11.80;95.50;;;;;;5055000;28;20018;-77
2021/11/14 11:39:38;;;;;;;33.78;17.70;;;11.80;95.40;;;;;;5054915;28;20431;-76
2021/11/14 11:42:04;;;;;;;31.58;16.92;;;11.80;95.60;;;;;;5056458;28;20025;-77
2021/11/14 11:44:33;;;;;;;32.70;17.83;;;11.80;95.40;;;;;;5054541;28;20037;-77
2021/11/14 11:47:10;;;;;;;32.40;17.88;;;11.90;95.40;;;;;;5038209;28;20029;-76
2021/11/14 11:49:38;;;;;;;34.85;18.85;;;11.90;95.20;;;;;;5055963;28;20036;-76
2021/11/14 11:52:13;;;;;;;30.23;16.70;;;11.90;95.20;;;;;;5071135;28;20389;-76
2021/11/14 11:54:42;;;;;;;32.25;18.13;;;12.00;95.10;;;;;;5056154;28;20031;-76
2021/11/14 11:57:14;;;;;;;34.13;19.60;;;12.00;95.00;;;;;;5056074;28;20529;-74
2021/11/14 12:00:02;;;;;;;35.30;18.00;;;12.00;95.00;;;;;;5055659;28;20033;-76
2021/11/14 12:02:30;;;;;;;32.22;17.80;;;12.00;95.10;;;;;;5088453;28;20025;-76
2021/11/14 12:05:03;;;;;;;33.22;17.88;;;12.10;94.90;;;;;;5065370;28;20029;-76
2021/11/14 12:07:34;;;;;;;33.92;17.10;;;12.00;94.80;;;;;;5068170;28;20025;-77
2021/11/14 12:10:12;;;;;;;31.08;16.88;;;12.00;94.70;;;;;;5055851;28;20028;-76
2021/11/14 12:12:55;;;;;;;34.65;18.33;;;12.10;94.80;;;;;;5054571;28;20108;-76
2021/11/14 12:15:53;;;;;;;32.58;17.30;;;12.10;94.80;;;;;;5055800;28;20025;-76
2021/11/14 12:18:19;;;;;;;32.85;17.67;;;12.10;94.60;;;;;;5055268;28;20497;-77
2021/11/14 12:20:53;;;;;;;30.30;16.05;;;12.10;94.60;;;;;;5055664;28;20063;-77
2021/11/14 12:23:37;;;;;;;28.30;16.45;;;12.20;94.60;;;;;;5054033;28;20021;-76
2021/11/14 12:26:10;;;;;;;32.80;17.00;;;12.20;94.60;;;;;;5055867;28;20029;-76
2021/11/14 12:28:42;;;;;;;27.52;15.10;;;12.30;94.60;;;;;;5055403;28;20025;-76